Terminal Aerodrome Forecast
Issued by NWS Pueblo, CO

Home | Current Version | Previous Version | Text Only | Print | Product List | Glossary On
Versions: 1 2 3 4 5 6 7 8 9 10 11 12 13 14 15 16 17 18 19 20 21 22 23 24 25 26 27 28 29 30 31 32 33 34 35 36 37 38 39 40
000
FTUS45 KPUB 300520
TAFCOS
TAF
KCOS 300520Z 3006/3106 05007KT P6SM VCSH SCT012 OVC050
      TEMPO 3006/3007 -SHRA BKN012
     FM300700 VRB05KT P6SM SCT008 OVC015
      TEMPO 3009/3013 2SM BR OVC008
     FM301500 10007KT P6SM SCT020 BKN050
     FM301800 09012KT P6SM VCTS SCT030CB BKN050
      TEMPO 3020/3024 4SM TSRA BKN025CB OVC050=

USA.gov is the U.S. government's official web portal to all federal, state and local government web resources and services.